Time;durP1;ratioP1;P1;durP2;ratioP2;P2;SDS_P1;SDS_P2;PMS_P1;PMS_P2;Temp;Humidity;BMP_temperature;BMP_pressure;BME280_temperature;BME280_humidity;BME280_pressure;Samples;Min_cycle;Max_cycle;Signal;HPM_P1;HPM_P2
2023/01/02 00:01:06;;;;;;;7.80;2.20;;;6.50;99.90;;;;;;4919645;29;20032;-87
2023/01/02 00:03:32;;;;;;;13.00;3.30;;;6.50;99.90;;;;;;4936395;29;20516;-88
2023/01/02 00:06:00;;;;;;;9.98;3.35;;;6.50;99.90;;;;;;4936482;29;20032;-88
2023/01/02 00:08:26;;;;;;;7.47;2.30;;;6.40;99.90;;;;;;4935327;29;20028;-88
2023/01/02 00:10:51;;;;;;;10.52;3.00;;;6.40;99.90;;;;;;4935428;29;20030;-89
2023/01/02 00:13:17;;;;;;;11.02;3.15;;;6.40;99.90;;;;;;4935892;29;20528;-88
2023/01/02 00:15:43;;;;;;;10.70;2.65;;;6.40;99.90;;;;;;4936471;29;20031;-87
2023/01/02 00:18:08;;;;;;;8.50;2.80;;;6.40;99.90;;;;;;4919698;29;20038;-88
2023/01/02 00:20:34;;;;;;;6.57;2.53;;;6.40;99.90;;;;;;4925792;29;20045;-88
2023/01/02 00:23:00;;;;;;;6.60;2.70;;;6.40;99.90;;;;;;4950965;29;20036;-88
2023/01/02 00:25:25;;;;;;;11.32;4.13;;;6.30;99.90;;;;;;4936399;29;20104;-88
2023/01/02 00:27:51;;;;;;;8.73;2.83;;;6.30;99.90;;;;;;4936499;29;20031;-89
2023/01/02 00:30:17;;;;;;;7.35;2.90;;;6.30;99.90;;;;;;4950990;29;20066;-89
2023/01/02 00:32:42;;;;;;;6.13;2.75;;;6.30;99.90;;;;;;4951159;29;20036;-88
2023/01/02 00:35:08;;;;;;;10.13;2.90;;;6.30;99.90;;;;;;4935080;29;20489;-89
2023/01/02 00:37:35;;;;;;;5.57;3.15;;;6.20;99.90;;;;;;4936170;29;20046;-89
2023/01/02 00:40:01;;;;;;;10.93;3.25;;;6.20;99.90;;;;;;4935989;29;20058;-88
2023/01/02 00:42:26;;;;;;;8.88;3.30;;;6.20;99.90;;;;;;4936307;29;20101;-88
2023/01/02 00:44:52;;;;;;;8.82;2.88;;;6.10;99.90;;;;;;4938977;29;20039;-88
2023/01/02 00:47:17;;;;;;;8.65;3.42;;;6.10;99.90;;;;;;4954899;29;20469;-89
2023/01/02 00:49:43;;;;;;;8.05;3.60;;;6.10;99.90;;;;;;4940002;29;20036;-89
2023/01/02 00:52:09;;;;;;;11.65;2.92;;;6.10;99.90;;;;;;4938861;29;20039;-89
2023/01/02 00:54:34;;;;;;;9.52;3.03;;;6.10;99.90;;;;;;4938912;29;20393;-88
2023/01/02 00:57:00;;;;;;;13.00;4.00;;;6.00;99.90;;;;;;4954670;29;20019;-88
2023/01/02 00:59:25;;;;;;;9.05;2.90;;;6.00;99.90;;;;;;4954807;29;20024;-88
2023/01/02 01:01:51;;;;;;;7.65;2.65;;;6.00;99.90;;;;;;4955042;29;20036;-88
2023/01/02 01:04:17;;;;;;;13.43;3.03;;;6.00;99.90;;;;;;4939556;29;20082;-88
2023/01/02 01:06:42;;;;;;;9.77;2.78;;;6.00;99.90;;;;;;4939616;29;20176;-88
2023/01/02 01:09:08;;;;;;;5.85;2.20;;;6.00;99.90;;;;;;4954268;29;20083;-88
2023/01/02 01:11:33;;;;;;;12.13;3.20;;;5.90;99.90;;;;;;4954338;29;20071;-89
2023/01/02 01:13:59;;;;;;;11.10;2.85;;;5.90;99.90;;;;;;4954431;29;20028;-88
2023/01/02 01:16:25;;;;;;;10.70;2.90;;;5.90;99.90;;;;;;4954523;29;20501;-88
2023/01/02 01:18:55;;;;;;;8.70;2.95;;;5.90;99.90;;;;;;4939968;29;20023;-88
2023/01/02 01:21:21;;;;;;;19.20;4.32;;;5.90;99.90;;;;;;4954339;29;20148;-88
2023/01/02 01:23:51;;;;;;;8.80;2.67;;;5.90;99.90;;;;;;4939874;29;20445;-88
2023/01/02 01:26:17;;;;;;;8.63;2.40;;;5.90;99.90;;;;;;4954505;29;20031;-89
2023/01/02 01:28:43;;;;;;;9.82;2.65;;;6.00;99.90;;;;;;4954411;29;20401;-89
2023/01/02 01:31:11;;;;;;;12.35;3.10;;;5.90;99.90;;;;;;4954121;29;20047;-89
2023/01/02 01:33:39;;;;;;;6.85;2.50;;;5.90;99.90;;;;;;4939324;29;20019;-90
2023/01/02 01:36:08;;;;;;;12.05;3.42;;;5.90;99.90;;;;;;4953965;29;20054;-89
2023/01/02 01:38:34;;;;;;;7.07;2.70;;;5.90;99.90;;;;;;4953706;29;20042;-89
2023/01/02 01:41:01;;;;;;;4.18;2.38;;;5.90;99.90;;;;;;4939114;29;20035;-89
2023/01/02 01:43:41;;;;;;;9.63;2.78;;;6.00;99.90;;;;;;4953733;29;20032;-89
2023/01/02 01:46:29;;;;;;;21.17;3.13;;;6.00;99.90;;;;;;4939042;29;20036;-88
2023/01/02 01:49:24;;;;;;;8.95;3.08;;;6.00;99.90;;;;;;4938827;29;20062;-88
2023/01/02 01:51:52;;;;;;;13.10;2.75;;;6.00;99.90;;;;;;4953709;29;20027;-89
2023/01/02 01:54:25;;;;;;;14.30;2.95;;;6.00;99.90;;;;;;4937332;29;20028;-89
2023/01/02 01:56:56;;;;;;;12.60;2.70;;;6.00;99.90;;;;;;4953540;29;20032;-88
2023/01/02 01:59:21;;;;;;;7.15;2.53;;;6.00;99.90;;;;;;4953721;29;20024;-89
2023/01/02 02:01:49;;;;;;;10.07;2.40;;;6.00;99.90;;;;;;4953509;29;20083;-88
2023/01/02 02:04:16;;;;;;;8.60;2.55;;;6.00;99.90;;;;;;4953246;29;20090;-89
2023/01/02 02:06:42;;;;;;;12.50;3.28;;;6.00;99.90;;;;;;4938632;29;20027;-88
2023/01/02 02:09:39;;;;;;;10.93;2.45;;;6.10;99.90;;;;;;4953663;29;20020;-89
2023/01/02 02:12:07;;;;;;;7.07;2.67;;;6.10;99.90;;;;;;4938304;29;20039;-88
2023/01/02 02:14:33;;;;;;;9.30;2.53;;;6.10;99.90;;;;;;4953324;29;20024;-89
2023/01/02 02:17:24;;;;;;;8.80;2.58;;;6.10;99.90;;;;;;4953118;29;20031;-89
2023/01/02 02:19:52;;;;;;;5.72;2.30;;;6.10;99.90;;;;;;4937096;29;20054;-89
2023/01/02 02:22:43;;;;;;;6.28;2.08;;;6.10;99.90;;;;;;4937195;29;20086;-89
2023/01/02 02:25:30;;;;;;;8.73;2.60;;;6.10;99.90;;;;;;4936890;29;20042;-89
2023/01/02 02:27:59;;;;;;;7.10;1.85;;;6.10;99.90;;;;;;4953215;29;20039;-89
2023/01/02 02:30:39;;;;;;;5.80;2.00;;;6.10;99.90;;;;;;4936928;29;20030;-89
2023/01/02 02:34:06;;;;;;;7.40;2.40;;;6.10;99.90;;;;;;4938239;29;20062;-89
2023/01/02 02:36:52;;;;;;;3.40;1.67;;;6.20;99.90;;;;;;4916956;29;20668;-89
2023/01/02 02:39:34;;;;;;;7.18;2.55;;;6.20;99.90;;;;;;4900847;29;20039;-90
2023/01/02 02:42:35;;;;;;;10.07;2.13;;;6.20;99.90;;;;;;4917036;29;20086;-89
2023/01/02 02:45:07;;;;;;;;;;;6.20;99.90;;;;;;4879815;29;20041;-88
2023/01/02 02:47:41;;;;;;;3.58;1.70;;;6.20;99.90;;;;;;4879384;29;19908;-88
2023/01/02 02:50:21;;;;;;;8.43;1.77;;;6.20;99.90;;;;;;4879475;29;20037;-89
2023/01/02 02:52:57;;;;;;;4.90;1.02;;;6.10;99.90;;;;;;4879219;29;20040;-87
2023/01/02 02:55:34;;;;;;;3.00;1.20;;;6.10;99.90;;;;;;4879918;29;20033;-88
2023/01/02 02:58:00;;;;;;;4.45;1.20;;;6.10;99.90;;;;;;4879379;29;20078;-88
2023/01/02 03:00:26;;;;;;;4.38;1.67;;;6.10;99.90;;;;;;4879119;29;20431;-89
2023/01/02 03:02:52;;;;;;;5.10;1.35;;;6.10;99.90;;;;;;4879040;29;20033;-88
2023/01/02 03:05:39;;;;;;;3.20;1.70;;;6.10;99.90;;;;;;4878408;29;20045;-89
2023/01/02 03:08:19;;;;;;;3.92;1.15;;;6.10;99.90;;;;;;4878790;29;20029;-89
2023/01/02 03:11:02;;;;;;;4.38;1.90;;;6.10;99.90;;;;;;4879314;29;20040;-88
2023/01/02 03:13:27;;;;;;;6.30;2.60;;;6.10;99.90;;;;;;4897878;29;20060;-89
2023/01/02 03:16:24;;;;;;;3.67;3.05;;;6.10;99.90;;;;;;4897976;29;20033;-89
2023/01/02 03:19:02;;;;;;;7.35;3.03;;;6.10;99.90;;;;;;4915575;29;20082;-89
2023/01/02 03:21:40;;;;;;;4.75;3.13;;;6.10;99.90;;;;;;4946895;29;20047;-89
2023/01/02 03:24:09;;;;;;;7.00;3.67;;;6.10;99.90;;;;;;4948649;29;20064;-89
2023/01/02 03:26:40;;;;;;;7.35;3.65;;;6.10;99.90;;;;;;4962989;29;20039;-89
2023/01/02 03:29:16;;;;;;;;;;;6.00;99.90;;;;;;4949954;29;20027;-89
2023/01/02 03:31:47;;;;;;;6.65;3.80;;;6.00;99.90;;;;;;4949290;29;19911;-88
2023/01/02 03:34:16;;;;;;;7.20;3.95;;;6.00;99.90;;;;;;4961764;29;20099;-89
2023/01/02 03:36:46;;;;;;;7.60;3.35;;;6.00;99.90;;;;;;4962396;29;20024;-88
2023/01/02 03:39:16;;;;;;;7.72;4.38;;;6.00;99.90;;;;;;4948228;29;20075;-88
2023/01/02 03:41:55;;;;;;;7.53;3.28;;;6.00;99.90;;;;;;4942285;29;20035;-89
2023/01/02 03:44:27;;;;;;;6.32;4.03;;;6.00;99.90;;;;;;4955217;29;20032;-89
2023/01/02 03:47:06;;;;;;;7.13;4.03;;;5.90;99.90;;;;;;4940907;29;20066;-89
2023/01/02 03:49:37;;;;;;;5.60;3.42;;;5.90;99.90;;;;;;4938853;29;20035;-89
2023/01/02 03:52:03;;;;;;;6.53;3.55;;;5.90;99.90;;;;;;4953447;29;20032;-88
2023/01/02 03:54:30;;;;;;;7.65;3.72;;;5.90;99.90;;;;;;4938057;29;20155;-89
2023/01/02 03:57:07;;;;;;;4.97;3.33;;;5.90;99.90;;;;;;4938192;29;20028;-87
2023/01/02 03:59:53;;;;;;;5.32;3.47;;;5.90;99.90;;;;;;4937772;29;20035;-89
2023/01/02 04:03:07;;;;;;;5.82;3.13;;;5.90;99.90;;;;;;4937646;29;20043;-89
2023/01/02 04:05:47;;;;;;;5.72;3.28;;;5.90;99.90;;;;;;4944739;29;20052;-88
2023/01/02 04:08:21;;;;;;;4.65;3.45;;;5.80;99.90;;;;;;4936756;29;20075;-88
2023/01/02 04:10:50;;;;;;;4.60;3.13;;;5.90;99.90;;;;;;4936200;29;20589;-88
2023/01/02 04:13:24;;;;;;;4.93;3.22;;;5.80;99.90;;;;;;4952215;29;20729;-88
2023/01/02 04:15:51;;;;;;;6.03;3.38;;;5.80;99.90;;;;;;4951984;29;20031;-88
2023/01/02 04:18:28;;;;;;;4.25;2.92;;;5.80;99.90;;;;;;4936808;29;20031;-88
2023/01/02 04:21:00;;;;;;;6.05;3.10;;;5.80;99.90;;;;;;4951609;29;20127;-87
2023/01/02 04:23:35;;;;;;;5.60;2.92;;;5.80;99.90;;;;;;4935888;29;20035;-89
2023/01/02 04:26:21;;;;;;;3.47;2.60;;;5.80;99.90;;;;;;4935642;29;20047;-89
2023/01/02 04:28:47;;;;;;;5.97;3.00;;;5.80;99.90;;;;;;4951965;29;20047;-89
2023/01/02 04:31:23;;;;;;;6.00;3.15;;;5.70;99.90;;;;;;4952155;29;20066;-89
2023/01/02 04:34:00;;;;;;;7.38;3.08;;;5.70;99.90;;;;;;4951981;29;20055;-88
2023/01/02 04:36:26;;;;;;;5.13;2.88;;;5.70;99.90;;;;;;4951714;29;20545;-89
2023/01/02 04:38:52;;;;;;;4.85;2.90;;;5.70;99.90;;;;;;4951530;29;20066;-89
2023/01/02 04:41:25;;;;;;;8.23;3.40;;;5.70;99.90;;;;;;4936459;29;20020;-89
2023/01/02 04:43:55;;;;;;;4.53;2.90;;;5.60;99.90;;;;;;4951861;29;20031;-88
2023/01/02 04:46:21;;;;;;;5.60;2.88;;;5.70;99.90;;;;;;4951707;29;20034;-89
2023/01/02 04:48:46;;;;;;;6.38;2.88;;;5.70;99.90;;;;;;4936856;29;20024;-88
2023/01/02 04:51:12;;;;;;;4.22;2.70;;;5.70;99.90;;;;;;4951445;29;20489;-88
2023/01/02 04:53:38;;;;;;;4.97;3.10;;;5.70;99.90;;;;;;4936477;29;20027;-88
2023/01/02 04:56:04;;;;;;;3.72;3.00;;;5.60;99.90;;;;;;4936346;29;20126;-89
2023/01/02 04:58:29;;;;;;;5.30;3.40;;;5.60;99.90;;;;;;4936523;29;20039;-87
2023/01/02 05:00:55;;;;;;;4.72;2.97;;;5.60;99.90;;;;;;4951602;29;20034;-88
2023/01/02 05:03:21;;;;;;;4.93;2.88;;;5.60;99.90;;;;;;4950997;29;20027;-88
2023/01/02 05:05:46;;;;;;;4.90;3.22;;;5.50;99.90;;;;;;4950879;29;20057;-88
2023/01/02 05:08:12;;;;;;;5.78;3.30;;;5.50;99.90;;;;;;4936086;29;20024;-89
2023/01/02 05:10:38;;;;;;;5.82;3.45;;;5.50;99.90;;;;;;4935122;29;20126;-89
2023/01/02 05:13:04;;;;;;;5.20;3.05;;;5.50;99.90;;;;;;4935023;29;20020;-88
2023/01/02 05:15:29;;;;;;;9.40;3.90;;;5.40;99.90;;;;;;4951111;29;20188;-88
2023/01/02 05:17:56;;;;;;;7.07;3.60;;;5.40;99.90;;;;;;4951196;29;20031;-89
2023/01/02 05:20:22;;;;;;;5.97;3.38;;;5.40;99.90;;;;;;4936248;29;20066;-88
2023/01/02 05:25:33;;;;;;;6.30;3.20;;;5.40;99.90;;;;;;4936041;29;20082;-88
2023/01/02 05:27:59;;;;;;;7.22;3.45;;;5.40;99.90;;;;;;4934883;29;20159;-89
2023/01/02 05:30:25;;;;;;;6.75;3.17;;;5.40;99.90;;;;;;4938910;29;20545;-90
2023/01/02 05:32:50;;;;;;;6.85;3.00;;;5.30;99.90;;;;;;4938429;29;20055;-89
2023/01/02 05:35:17;;;;;;;10.45;3.10;;;5.20;99.90;;;;;;4938520;29;20035;-89
2023/01/02 05:37:42;;;;;;;4.47;2.78;;;5.20;99.90;;;;;;4938235;29;20023;-87
2023/01/02 05:40:08;;;;;;;4.53;3.03;;;5.20;99.90;;;;;;4936573;29;20410;-90
2023/01/02 05:42:34;;;;;;;4.93;2.78;;;5.20;99.90;;;;;;4938481;29;20020;-89
2023/01/02 05:45:00;;;;;;;7.53;2.88;;;5.20;99.90;;;;;;4938116;29;20098;-89
2023/01/02 05:47:25;;;;;;;5.15;3.00;;;5.10;99.90;;;;;;4937956;29;20027;-89
2023/01/02 05:49:51;;;;;;;7.03;3.20;;;5.10;99.90;;;;;;4937925;29;20059;-90
2023/01/02 05:52:16;;;;;;;3.58;2.65;;;5.10;99.90;;;;;;4939204;29;20106;-89
2023/01/02 05:54:42;;;;;;;4.85;3.00;;;5.10;99.90;;;;;;4922423;29;20083;-90
2023/01/02 05:57:08;;;;;;;4.55;3.10;;;5.10;99.90;;;;;;4937766;29;20513;-89
2023/01/02 05:59:33;;;;;;;5.50;2.72;;;5.10;99.90;;;;;;4937797;29;20028;-89
2023/01/02 06:01:59;;;;;;;7.95;2.50;;;5.00;99.90;;;;;;4937830;29;20038;-90
2023/01/02 06:04:25;;;;;;;6.97;2.50;;;5.00;99.90;;;;;;4938847;29;20046;-89
2023/01/02 06:06:50;;;;;;;3.70;2.50;;;5.00;99.90;;;;;;4939317;29;20031;-89
2023/01/02 06:09:16;;;;;;;4.90;2.65;;;5.00;99.90;;;;;;4939125;29;20094;-89
2023/01/02 06:11:43;;;;;;;8.45;2.53;;;5.00;99.90;;;;;;4922410;29;20474;-89
2023/01/02 06:14:09;;;;;;;9.95;2.78;;;5.00;99.90;;;;;;4938051;29;20370;-89
2023/01/02 06:16:36;;;;;;;5.10;2.63;;;5.00;99.90;;;;;;4937647;29;20032;-88
2023/01/02 06:19:03;;;;;;;4.38;2.30;;;5.00;99.90;;;;;;4938519;29;20112;-89
2023/01/02 06:21:28;;;;;;;5.93;2.60;;;5.00;99.90;;;;;;4951403;29;20058;-89
2023/01/02 06:23:56;;;;;;;5.95;2.63;;;5.00;99.90;;;;;;4953721;29;20024;-89
2023/01/02 06:26:24;;;;;;;7.13;2.63;;;5.00;99.90;;;;;;4938819;29;20061;-88
2023/01/02 06:28:54;;;;;;;4.57;1.85;;;5.00;99.90;;;;;;4938585;29;20385;-89
2023/01/02 06:31:22;;;;;;;4.95;2.25;;;5.00;99.90;;;;;;4938734;29;20035;-89
2023/01/02 06:33:52;;;;;;;3.40;1.95;;;5.00;99.90;;;;;;4938509;29;20024;-89
2023/01/02 06:36:18;;;;;;;4.18;2.10;;;5.00;99.90;;;;;;4953653;29;20031;-89
2023/01/02 06:38:44;;;;;;;3.97;1.92;;;5.00;99.90;;;;;;4953298;29;20032;-89
2023/01/02 06:41:10;;;;;;;3.17;1.90;;;5.00;99.90;;;;;;4951984;28;20035;-89
2023/01/02 06:43:44;;;;;;;4.18;2.33;;;5.00;99.90;;;;;;4953356;29;20023;-89
2023/01/02 06:46:12;;;;;;;3.92;1.70;;;5.00;99.90;;;;;;4952912;29;20039;-89
2023/01/02 06:48:38;;;;;;;3.72;2.10;;;5.00;99.90;;;;;;4952962;29;20557;-88
2023/01/02 06:51:08;;;;;;;5.10;1.92;;;5.00;99.90;;;;;;4953037;29;20042;-89
2023/01/02 06:53:35;;;;;;;4.40;2.40;;;5.00;99.90;;;;;;4953001;29;20024;-89
2023/01/02 06:56:01;;;;;;;3.08;2.03;;;5.00;99.90;;;;;;4952996;29;20035;-89
2023/01/02 06:58:32;;;;;;;2.22;1.40;;;5.00;99.90;;;;;;4952943;29;20110;-89
2023/01/02 07:01:18;;;;;;;4.15;1.77;;;5.00;99.90;;;;;;4936635;29;20042;-89
2023/01/02 07:03:44;;;;;;;5.05;2.50;;;5.00;99.90;;;;;;4937844;29;20508;-89
2023/01/02 07:06:13;;;;;;;2.85;1.35;;;5.00;99.90;;;;;;4937977;29;20039;-89
2023/01/02 07:08:39;;;;;;;2.00;1.30;;;5.00;99.90;;;;;;4937822;29;20106;-89
2023/01/02 07:11:16;;;;;;;1.65;1.00;;;4.90;99.90;;;;;;4937356;29;20034;-89
2023/01/02 07:13:43;;;;;;;1.05;0.90;;;4.90;99.90;;;;;;4937747;29;20027;-89
2023/01/02 07:16:11;;;;;;;3.17;1.20;;;4.80;99.90;;;;;;4952457;29;20042;-88
2023/01/02 07:18:37;;;;;;;2.85;1.67;;;4.70;99.90;;;;;;4936312;29;20031;-89
2023/01/02 07:21:04;;;;;;;3.20;1.33;;;4.70;99.90;;;;;;4937440;29;20101;-88
2023/01/02 07:23:29;;;;;;;3.35;1.13;;;4.60;99.90;;;;;;4937373;29;20209;-89
2023/01/02 07:25:57;;;;;;;1.52;1.02;;;4.50;99.90;;;;;;4936370;29;20227;-88
2023/01/02 07:28:23;;;;;;;5.53;1.10;;;4.50;99.90;;;;;;4937326;29;20072;-88
2023/01/02 07:30:50;;;;;;;1.48;1.00;;;4.40;99.90;;;;;;4937091;29;20129;-89
2023/01/02 07:33:16;;;;;;;1.10;1.00;;;4.40;99.90;;;;;;4937287;29;20031;-89
2023/01/02 07:35:43;;;;;;;1.80;1.00;;;4.30;99.90;;;;;;4937215;29;20106;-89
2023/01/02 07:38:09;;;;;;;2.00;1.17;;;4.30;99.90;;;;;;4937536;29;20026;-88
2023/01/02 07:40:35;;;;;;;1.40;1.00;;;4.20;99.90;;;;;;4937688;29;20036;-89
2023/01/02 07:43:00;;;;;;;1.63;1.00;;;4.20;99.90;;;;;;4936551;29;20023;-89
2023/01/02 07:45:26;;;;;;;1.38;1.00;;;4.20;99.90;;;;;;4937669;29;20043;-89
2023/01/02 07:47:51;;;;;;;1.55;1.20;;;4.10;99.90;;;;;;4937388;29;20466;-89
2023/01/02 07:50:17;;;;;;;5.93;1.35;;;4.10;99.90;;;;;;4936932;29;20028;-89
2023/01/02 07:52:43;;;;;;;4.00;1.15;;;4.10;99.90;;;;;;4935368;29;20020;-89
2023/01/02 07:55:09;;;;;;;1.60;0.73;;;4.00;99.90;;;;;;4935853;29;20028;-89
2023/01/02 07:57:34;;;;;;;2.47;0.90;;;4.00;99.90;;;;;;4935983;29;20027;-89
2023/01/02 08:00:00;;;;;;;1.90;0.98;;;3.90;99.90;;;;;;4920395;29;20473;-88
2023/01/02 08:02:25;;;;;;;2.45;0.75;;;3.90;99.90;;;;;;4936091;29;20162;-89
2023/01/02 08:04:51;;;;;;;2.55;1.02;;;3.80;99.90;;;;;;4935747;29;20036;-88
2023/01/02 08:07:17;;;;;;;2.92;1.83;;;3.80;99.90;;;;;;4919853;29;20028;-89
2023/01/02 08:09:43;;;;;;;3.85;1.50;;;3.80;99.90;;;;;;4919721;29;20034;-89
2023/01/02 08:12:09;;;;;;;1.35;0.70;;;3.70;99.90;;;;;;4920013;29;20027;-88
2023/01/02 08:14:34;;;;;;;0.73;0.50;;;3.70;99.90;;;;;;4935590;29;20098;-89
2023/01/02 08:17:00;;;;;;;1.85;0.77;;;3.70;99.90;;;;;;4935442;29;20024;-89
2023/01/02 08:19:25;;;;;;;2.58;0.70;;;3.70;99.90;;;;;;4935149;29;20071;-87
2023/01/02 08:21:51;;;;;;;2.92;0.60;;;3.60;99.90;;;;;;4936801;29;20115;-89
2023/01/02 08:24:17;;;;;;;1.75;0.57;;;3.60;99.90;;;;;;4936369;29;20031;-89
2023/01/02 08:26:42;;;;;;;1.45;0.90;;;3.60;99.90;;;;;;4935094;29;20032;-89
2023/01/02 08:29:08;;;;;;;1.33;0.80;;;3.60;99.90;;;;;;4936261;29;20028;-88
2023/01/02 08:31:34;;;;;;;3.08;0.70;;;3.60;99.90;;;;;;4936467;29;20032;-89
2023/01/02 08:34:00;;;;;;;0.70;0.43;;;3.50;99.90;;;;;;4936503;29;20027;-88
2023/01/02 08:36:25;;;;;;;1.02;0.70;;;3.50;99.90;;;;;;4936136;29;20031;-89
2023/01/02 08:38:51;;;;;;;2.63;1.23;;;3.50;99.90;;;;;;4919305;29;20027;-89
2023/01/02 08:41:38;;;;;;;1.48;0.80;;;3.50;99.90;;;;;;4934985;29;20110;-88
2023/01/02 08:44:04;;;;;;;0.73;0.60;;;3.50;99.90;;;;;;4936039;29;20083;-88
2023/01/02 08:46:32;;;;;;;2.03;0.60;;;3.50;99.90;;;;;;4934768;29;20063;-88
2023/01/02 08:48:58;;;;;;;1.55;0.60;;;3.50;99.90;;;;;;4936357;29;20534;-87
2023/01/02 08:51:24;;;;;;;1.63;0.75;;;3.40;99.90;;;;;;4935036;29;20106;-89
2023/01/02 08:53:50;;;;;;;6.78;1.67;;;3.50;99.90;;;;;;4935431;29;20078;-88
2023/01/02 08:56:25;;;;;;;4.30;1.95;;;3.50;99.90;;;;;;4934926;29;20055;-89
2023/01/02 08:58:55;;;;;;;6.05;1.98;;;3.40;99.90;;;;;;4934813;29;20518;-88
2023/01/02 09:01:24;;;;;;;5.95;1.60;;;3.40;99.90;;;;;;4935294;29;20474;-88
2023/01/02 09:03:50;;;;;;;1.50;0.85;;;3.40;99.90;;;;;;4936670;29;20035;-88
2023/01/02 09:06:15;;;;;;;2.55;0.95;;;3.40;99.90;;;;;;4938762;29;20035;-89
2023/01/02 09:08:41;;;;;;;3.13;0.85;;;3.40;99.90;;;;;;4938969;29;20082;-89
2023/01/02 09:11:12;;;;;;;3.33;0.80;;;3.40;99.90;;;;;;4923030;29;20100;-88
2023/01/02 09:13:38;;;;;;;13.27;1.27;;;3.40;99.90;;;;;;4942024;29;20066;-89
2023/01/02 09:16:04;;;;;;;1.75;1.08;;;3.30;99.90;;;;;;4939988;29;20028;-88
2023/01/02 09:18:29;;;;;;;2.30;0.63;;;3.30;99.90;;;;;;4938725;29;20031;-88
2023/01/02 09:20:55;;;;;;;2.78;0.88;;;3.30;99.90;;;;;;4931765;29;20144;-89
2023/01/02 09:23:21;;;;;;;2.65;0.77;;;3.40;99.90;;;;;;4954484;29;20035;-89
2023/01/02 09:25:46;;;;;;;2.25;0.90;;;3.40;99.90;;;;;;4939203;29;20040;-89
2023/01/02 09:28:12;;;;;;;2.03;0.90;;;3.40;99.90;;;;;;4938478;29;20026;-89
2023/01/02 09:30:37;;;;;;;30.65;12.10;;;3.50;99.90;;;;;;4939124;29;20050;-89
2023/01/02 09:33:03;;;;;;;21.98;9.18;;;3.50;99.90;;;;;;4954095;29;20033;-89
2023/01/02 09:35:29;;;;;;;15.90;6.38;;;3.60;99.90;;;;;;4954326;29;20042;-89
2023/01/02 09:37:54;;;;;;;5.65;2.53;;;3.70;99.90;;;;;;4939173;29;20035;-89
2023/01/02 09:40:20;;;;;;;4.85;2.20;;;3.70;99.90;;;;;;4953858;29;20122;-89
2023/01/02 09:42:49;;;;;;;3.97;1.23;;;3.80;99.90;;;;;;4953995;29;20020;-88
2023/01/02 09:45:15;;;;;;;1.83;1.40;;;3.90;99.90;;;;;;4938938;29;20104;-89
2023/01/02 09:47:43;;;;;;;6.28;2.60;;;4.00;99.90;;;;;;4938911;29;20489;-89
2023/01/02 09:50:23;;;;;;;9.43;3.10;;;4.00;99.90;;;;;;4953987;29;20035;-88
2023/01/02 09:52:54;;;;;;;3.10;2.00;;;4.10;99.90;;;;;;4938796;29;20044;-88
2023/01/02 09:55:37;;;;;;;1.90;1.42;;;4.20;99.90;;;;;;4938605;29;20474;-88
2023/01/02 09:58:18;;;;;;;2.75;0.70;;;4.40;99.90;;;;;;4938572;29;20031;-89
2023/01/02 10:00:48;;;;;;;1.30;0.80;;;4.60;99.90;;;;;;4953856;29;20106;-88
2023/01/02 10:03:46;;;;;;;;;;;4.90;99.90;;;;;;4954023;29;20027;-87
2023/01/02 10:06:23;;;;;;;84.90;24.00;;;5.30;99.90;;;;;;4931899;29;19925;-88
2023/01/02 10:09:20;;;;;;;9.45;2.83;;;5.70;99.90;;;;;;4938601;29;20020;-89
2023/01/02 10:12:09;;;;;;;106.25;35.70;;;6.10;99.90;;;;;;4953611;29;20060;-88
2023/01/02 10:14:57;;;;;;;3.50;1.50;;;6.60;99.90;;;;;;4937221;29;20035;-89
2023/01/02 10:17:25;;;;;;;14.75;5.43;;;6.90;99.90;;;;;;4938491;29;20171;-88
2023/01/02 10:20:07;;;;;;;4.75;3.60;;;7.20;99.90;;;;;;4953093;29;20054;-89
2023/01/02 10:22:44;;;;;;;5.18;3.00;;;7.60;99.90;;;;;;4937413;29;20059;-88
2023/01/02 10:25:28;;;;;;;4.35;2.58;;;7.90;99.90;;;;;;4937162;29;20050;-88
2023/01/02 10:28:01;;;;;;;10.88;4.55;;;8.20;99.90;;;;;;4921735;29;20477;-88
2023/01/02 10:30:31;;;;;;;6.15;3.10;;;8.40;99.90;;;;;;4938234;29;20028;-88
2023/01/02 10:33:08;;;;;;;8.30;3.90;;;8.70;99.90;;;;;;4937376;29;20397;-89
2023/01/02 10:35:39;;;;;;;2.45;1.40;;;8.90;99.90;;;;;;4937156;29;20031;-89
2023/01/02 10:38:05;;;;;;;3.53;1.30;;;9.00;99.90;;;;;;4936858;29;20036;-90
2023/01/02 10:40:32;;;;;;;8.45;4.07;;;9.10;99.90;;;;;;4937307;29;20116;-89
2023/01/02 10:42:59;;;;;;;6.40;2.88;;;9.20;99.90;;;;;;4937022;29;20054;-90
2023/01/02 10:45:24;;;;;;;2.35;1.27;;;9.30;99.90;;;;;;4936984;29;20470;-89
2023/01/02 10:47:50;;;;;;;3.15;0.77;;;9.30;99.90;;;;;;4936958;29;20034;-89
2023/01/02 10:50:26;;;;;;;2.55;1.17;;;9.40;99.90;;;;;;4937288;29;20074;-90
2023/01/02 10:53:04;;;;;;;3.08;1.17;;;9.60;99.90;;;;;;4937110;29;20028;-89
2023/01/02 10:55:36;;;;;;;2.35;1.00;;;9.80;99.90;;;;;;4936752;29;20188;-89
2023/01/02 10:58:26;;;;;;;0.98;0.70;;;9.90;99.90;;;;;;4937914;29;20070;-89
2023/01/02 11:01:12;;;;;;;3.17;0.60;;;9.90;99.90;;;;;;4927298;29;20043;-89
2023/01/02 11:03:38;;;;;;;1.05;0.63;;;10.10;99.90;;;;;;4936618;29;20034;-89
2023/01/02 11:06:27;;;;;;;2.72;0.77;;;10.20;99.40;;;;;;4936504;29;20036;-89
2023/01/02 11:09:03;;;;;;;3.75;1.25;;;10.40;99.40;;;;;;4936344;29;20031;-89
2023/01/02 11:11:30;;;;;;;1.30;0.80;;;10.60;97.90;;;;;;4936703;29;20486;-88
2023/01/02 11:14:05;;;;;;;4.20;1.10;;;10.70;96.30;;;;;;4936691;29;20054;-89
2023/01/02 11:16:36;;;;;;;1.17;0.68;;;10.60;95.40;;;;;;4936559;29;20083;-89
2023/01/02 11:19:06;;;;;;;1.83;0.82;;;10.60;94.80;;;;;;4937954;29;20553;-89
2023/01/02 11:21:35;;;;;;;1.15;0.75;;;10.60;94.90;;;;;;4948558;29;20505;-89
2023/01/02 11:24:03;;;;;;;3.50;1.10;;;10.90;94.70;;;;;;4952033;29;20478;-89
2023/01/02 11:26:31;;;;;;;3.88;0.85;;;11.10;93.60;;;;;;4936615;29;20485;-89
2023/01/02 11:29:10;;;;;;;3.70;1.00;;;11.30;92.50;;;;;;4952180;29;20087;-88
2023/01/02 11:31:45;;;;;;;1.77;0.70;;;11.30;91.80;;;;;;4937292;29;20110;-89
2023/01/02 11:34:23;;;;;;;1.83;0.70;;;11.30;91.20;;;;;;4937145;29;20024;-88
2023/01/02 11:37:03;;;;;;;2.00;0.85;;;11.40;90.60;;;;;;4952184;29;20031;-89
2023/01/02 11:39:32;;;;;;;3.30;1.17;;;11.60;90.30;;;;;;4936054;29;20490;-89
2023/01/02 11:45:01;;;;;;;1.40;0.40;;;12.20;88.80;;;;;;4937250;29;20110;-88
2023/01/02 11:47:40;;;;;;;1.83;0.70;;;12.10;84.50;;;;;;4935696;29;20040;-89
2023/01/02 11:50:06;;;;;;;3.78;0.90;;;12.10;84.50;;;;;;4951837;29;20063;-89
2023/01/02 11:52:45;;;;;;;2.85;0.63;;;12.50;84.60;;;;;;4952011;29;20034;-89
2023/01/02 11:55:20;;;;;;;4.75;0.80;;;12.90;83.50;;;;;;4951680;29;20028;-89
2023/01/02 11:58:06;;;;;;;4.38;0.70;;;13.30;82.00;;;;;;4951345;29;20046;-89
2023/01/02 12:00:35;;;;;;;2.50;0.95;;;13.60;80.20;;;;;;4951823;29;20027;-89
2023/01/02 12:03:15;;;;;;;1.85;0.77;;;13.80;78.70;;;;;;4951728;29;20062;-89
2023/01/02 12:05:48;;;;;;;3.72;0.98;;;13.90;76.40;;;;;;4951831;29;20086;-87
2023/01/02 12:08:28;;;;;;;3.95;0.93;;;13.80;74.60;;;;;;4953320;29;20384;-89
2023/01/02 12:11:12;;;;;;;3.53;1.35;;;13.60;74.10;;;;;;4942430;29;20030;-89
2023/01/02 12:13:56;;;;;;;2.85;0.50;;;13.70;74.20;;;;;;4938556;29;20040;-89
2023/01/02 12:16:37;;;;;;;3.00;0.70;;;13.70;73.00;;;;;;4935550;29;20024;-89
2023/01/02 12:19:22;;;;;;;2.72;0.90;;;13.50;72.60;;;;;;4951690;29;20032;-89
2023/01/02 12:22:06;;;;;;;1.17;0.40;;;13.50;73.30;;;;;;4935342;29;20043;-89
2023/01/02 12:24:43;;;;;;;3.75;0.63;;;13.60;73.00;;;;;;4936690;29;20490;-90
2023/01/02 12:27:38;;;;;;;1.33;0.68;;;13.70;72.60;;;;;;4936565;29;20094;-90
2023/01/02 12:30:07;;;;;;;4.75;0.98;;;13.80;72.40;;;;;;4945815;29;20126;-89
2023/01/02 12:32:54;;;;;;;1.77;0.63;;;14.10;72.00;;;;;;4936521;29;20024;-90
2023/01/02 12:35:32;;;;;;;1.58;0.70;;;14.20;71.70;;;;;;4936357;29;20038;-90
2023/01/02 12:38:00;;;;;;;1.23;0.60;;;14.20;70.40;;;;;;4952312;28;20028;-89
2023/01/02 12:40:35;;;;;;;4.20;0.70;;;14.10;70.20;;;;;;4955313;29;20099;-90
2023/01/02 12:43:07;;;;;;;1.75;0.60;;;14.00;70.00;;;;;;4939589;29;20389;-90
2023/01/02 12:45:51;;;;;;;2.47;0.88;;;14.00;69.80;;;;;;4939101;29;20051;-90
2023/01/02 12:48:44;;;;;;;2.42;0.63;;;14.00;70.20;;;;;;4939206;29;20070;-90
2023/01/02 12:51:34;;;;;;;3.45;0.80;;;14.20;69.50;;;;;;4955110;29;20035;-89
2023/01/02 12:54:03;;;;;;;32.58;8.73;;;14.10;69.20;;;;;;4940252;29;20114;-90
2023/01/02 12:56:37;;;;;;;4.75;1.30;;;14.10;69.00;;;;;;4938894;29;20035;-90
2023/01/02 12:59:30;;;;;;;2.72;0.98;;;13.80;68.70;;;;;;4939222;29;20020;-90
2023/01/02 13:02:16;;;;;;;2.40;1.10;;;13.70;69.70;;;;;;4939724;29;20047;-90
2023/01/02 13:04:49;;;;;;;2.05;0.80;;;13.80;69.80;;;;;;4938838;29;20027;-90
2023/01/02 13:07:40;;;;;;;3.75;1.35;;;14.10;69.80;;;;;;4954760;29;20039;-90
2023/01/02 13:10:11;;;;;;;1.48;0.60;;;14.40;69.50;;;;;;4940036;29;20493;-91
2023/01/02 13:12:37;;;;;;;7.75;1.48;;;14.60;68.90;;;;;;4939939;29;20095;-90
2023/01/02 13:15:13;;;;;;;8.55;1.33;;;14.80;68.20;;;;;;4938489;29;20031;-90
2023/01/02 13:17:42;;;;;;;4.55;1.15;;;15.10;68.10;;;;;;4954460;29;20035;-89
2023/01/02 13:20:38;;;;;;;4.80;1.50;;;15.20;67.20;;;;;;4938332;29;20130;-90
2023/01/02 13:23:30;;;;;;;3.30;1.05;;;15.30;66.80;;;;;;4938527;29;20032;-90